Time;durP1;ratioP1;P1;durP2;ratioP2;P2;SDS_P1;SDS_P2;PMS_P1;PMS_P2;Temp;Humidity;BMP_temperature;BMP_pressure;BME280_temperature;BME280_humidity;BME280_pressure;Samples;Min_cycle;Max_cycle;Signal;HPM_P1;HPM_P2
2022/03/13 00:00:34;;;;;;;30.12;17.27;;;;;;;-2.98;46.67;100865.30;1747791;80;21277;-65
2022/03/13 00:03:09;;;;;;;39.33;18.90;;;;;;;-2.97;46.79;100859.77;1759032;79;20949;-65
2022/03/13 00:05:36;;;;;;;44.10;18.48;;;;;;;-2.99;46.78;100859.75;1758708;80;21499;-65
2022/03/13 00:08:07;;;;;;;39.18;20.02;;;;;;;-3.02;46.78;100866.06;1747444;80;20965;-65
2022/03/13 00:10:34;;;;;;;40.95;20.27;;;;;;;-3.04;46.87;100863.01;1749827;80;21613;-65
2022/03/13 00:13:03;;;;;;;34.13;19.43;;;;;;;-3.10;46.98;100866.27;1751931;80;21061;-65
2022/03/13 00:15:37;;;;;;;36.20;19.87;;;;;;;-3.14;46.99;100866.99;1750923;80;20959;-65
2022/03/13 00:18:04;;;;;;;35.17;17.73;;;;;;;-3.18;46.98;100866.05;1753888;80;20964;-65
2022/03/13 00:20:33;;;;;;;28.83;16.77;;;;;;;-3.16;46.96;100866.11;1752882;80;20878;-65
2022/03/13 00:22:59;;;;;;;30.10;15.80;;;;;;;-3.15;46.98;100860.16;1762356;80;20921;-65
2022/03/13 00:25:26;;;;;;;28.00;16.63;;;;;;;-3.11;46.96;100859.41;1753356;80;21088;-65
2022/03/13 00:27:53;;;;;;;35.40;17.80;;;;;;;-3.03;47.00;100863.03;1750060;80;20898;-65
2022/03/13 00:30:19;;;;;;;30.10;16.70;;;;;;;-2.96;46.97;100862.38;1757117;80;20981;-65
2022/03/13 00:32:46;;;;;;;34.95;16.20;;;;;;;-2.86;46.94;100854.94;1757934;80;20941;-65
2022/03/13 00:35:13;;;;;;;33.02;15.18;;;;;;;-2.81;46.92;100858.48;1746462;80;20941;-65
2022/03/13 00:37:39;;;;;;;35.00;16.17;;;;;;;-2.75;46.86;100852.23;1748887;80;21146;-65
2022/03/13 00:40:08;;;;;;;30.33;15.90;;;;;;;-2.71;46.91;100861.72;1755566;80;20894;-65
2022/03/13 00:42:34;;;;;;;37.35;16.35;;;;;;;-2.69;46.90;100856.22;1760352;80;20929;-65
2022/03/13 00:45:01;;;;;;;29.10;15.43;;;;;;;-2.67;46.92;100856.27;1754307;80;20917;-65
2022/03/13 00:47:28;;;;;;;29.40;15.17;;;;;;;-2.67;46.95;100852.02;1744822;80;21464;-65
2022/03/13 00:49:55;;;;;;;32.67;17.30;;;;;;;-2.68;46.90;100855.41;1729410;82;21189;-65
2022/03/13 00:52:21;;;;;;;29.65;16.82;;;;;;;-2.66;46.93;100853.77;1726905;81;20898;-65
2022/03/13 00:54:49;;;;;;;28.93;16.87;;;;;;;-2.65;46.91;100855.48;1720299;82;20918;-65
2022/03/13 00:57:17;;;;;;;30.37;15.63;;;;;;;-2.66;46.95;100852.48;1714188;82;21024;-65
2022/03/13 00:59:44;;;;;;;28.95;12.75;;;;;;;-2.63;47.03;100855.50;1712446;82;21449;-65
2022/03/13 01:02:11;;;;;;;28.75;14.63;;;;;;;-2.63;47.04;100853.83;1685778;82;21903;-65
2022/03/13 01:04:38;;;;;;;32.33;14.68;;;;;;;-2.56;47.03;100853.13;1671747;84;21413;-65
2022/03/13 01:07:04;;;;;;;32.27;15.83;;;;;;;-2.48;47.09;100845.23;1720046;82;20987;-65
2022/03/13 01:09:31;;;;;;;29.65;16.40;;;;;;;-2.45;47.05;100846.14;1714906;82;20971;-65
2022/03/13 01:11:58;;;;;;;36.10;17.87;;;;;;;-2.40;47.05;100845.84;1718096;82;20943;-65
2022/03/13 01:14:24;;;;;;;29.50;17.33;;;;;;;-2.39;46.98;100848.42;1713413;82;21898;-65
2022/03/13 01:17:02;;;;;;;34.70;17.92;;;;;;;-2.41;46.95;100849.20;1721451;82;21190;-65
2022/03/13 01:19:29;;;;;;;33.28;16.23;;;;;;;-2.41;46.91;100849.20;1692403;83;20956;-65
2022/03/13 01:21:56;;;;;;;30.32;16.00;;;;;;;-2.40;46.96;100853.52;1697292;83;21505;-65
2022/03/13 01:24:43;;;;;;;37.38;17.52;;;;;;;-2.35;47.04;100854.08;1691271;83;21453;-65
2022/03/13 01:27:12;;;;;;;35.68;16.97;;;;;;;-2.31;47.01;100858.84;1730901;81;21096;-65
2022/03/13 01:29:39;;;;;;;33.78;16.80;;;;;;;-2.32;46.92;100860.95;1728896;81;20898;-65
2022/03/13 01:32:09;;;;;;;34.95;17.07;;;;;;;-2.35;46.90;100859.58;1728919;81;20914;-65
2022/03/13 01:34:42;;;;;;;39.63;17.12;;;;;;;-2.40;46.87;100848.40;1727475;81;21455;-65
2022/03/13 01:37:28;;;;;;;35.00;18.82;;;;;;;-2.48;46.95;100845.66;1725559;81;20914;-65
2022/03/13 01:39:57;;;;;;;36.50;17.25;;;;;;;-2.57;47.06;100853.98;1727913;81;21488;-65
2022/03/13 01:42:24;;;;;;;31.57;17.65;;;;;;;-2.65;47.13;100843.97;1757953;80;20933;-65
2022/03/13 01:44:51;;;;;;;35.75;18.98;;;;;;;-2.76;47.19;100839.88;1751691;80;20954;-65
2022/03/13 01:47:18;;;;;;;31.75;17.42;;;;;;;-2.87;47.31;100841.72;1748860;80;20918;-65
2022/03/13 01:49:46;;;;;;;32.28;17.55;;;;;;;-3.01;47.38;100840.95;1753633;81;21538;-65
2022/03/13 01:52:16;;;;;;;34.83;17.20;;;;;;;-3.09;47.44;100833.91;1722324;82;21182;-65
2022/03/13 01:54:45;;;;;;;30.85;16.25;;;;;;;-3.14;47.35;100832.50;1752307;80;20984;-65
2022/03/13 01:57:18;;;;;;;39.90;17.12;;;;;;;-3.13;47.49;100839.36;1750148;80;20910;-65
2022/03/13 01:59:45;;;;;;;35.55;16.10;;;;;;;-3.17;47.56;100836.26;1746727;81;20973;-65
2022/03/13 02:02:12;;;;;;;35.58;15.80;;;;;;;-3.23;47.67;100834.83;1750139;80;20993;-65
2022/03/13 02:04:39;;;;;;;31.33;16.93;;;;;;;-3.40;47.82;100831.41;1748095;80;21072;-65
2022/03/13 02:07:05;;;;;;;31.65;17.20;;;;;;;-3.62;47.86;100840.58;1752371;80;20909;-65
2022/03/13 02:09:33;;;;;;;33.83;18.35;;;;;;;-3.79;48.02;100838.82;1719071;82;21518;-65
2022/03/13 02:12:02;;;;;;;38.55;19.45;;;;;;;-3.93;48.08;100840.97;1720990;82;21032;-65
2022/03/13 02:14:29;;;;;;;35.38;18.05;;;;;;;-4.03;48.18;100837.72;1743741;81;21354;-65
2022/03/13 02:16:56;;;;;;;37.48;18.87;;;;;;;-4.11;48.28;100832.80;1748489;81;21499;-65
2022/03/13 02:19:22;;;;;;;34.00;17.73;;;;;;;-4.21;48.38;100829.09;1742775;80;20985;-65
2022/03/13 02:21:52;;;;;;;39.17;19.53;;;;;;;-4.31;48.52;100835.61;1751060;80;20878;-65
2022/03/13 02:24:25;;;;;;;39.30;20.48;;;;;;;-4.42;48.55;100829.31;1752775;81;20872;-65
2022/03/13 02:26:58;;;;;;;38.85;20.60;;;;;;;-4.48;48.56;100834.23;1757222;81;20932;-65
2022/03/13 02:29:26;;;;;;;38.75;19.98;;;;;;;-4.48;48.85;100836.77;1752972;81;21056;-65
2022/03/13 02:31:53;;;;;;;34.63;18.77;;;;;;;-4.53;48.92;100837.03;1756998;81;21041;-65
2022/03/13 02:34:20;;;;;;;33.13;18.40;;;;;;;-4.57;49.04;100836.45;1756160;81;20864;-65
2022/03/13 02:36:58;;;;;;;26.93;16.12;;;;;;;-4.57;49.05;100835.19;1751451;80;21841;-65
2022/03/13 02:39:25;;;;;;;28.20;15.25;;;;;;;-4.53;49.09;100843.41;1749110;80;21459;-65
2022/03/13 02:41:52;;;;;;;40.73;15.65;;;;;;;-4.45;49.18;100841.97;1759295;80;27363;-65
2022/03/13 02:44:19;;;;;;;32.23;17.37;;;;;;;-4.40;49.19;100840.40;1750241;80;20968;-66
2022/03/13 02:46:56;;;;;;;30.12;17.62;;;;;;;-4.41;49.18;100837.41;1753074;80;20941;-65
2022/03/13 02:49:24;;;;;;;;;;;;;;;-4.41;49.22;100844.19;1747699;80;21436;-65
2022/03/13 02:51:55;;;;;;;37.55;19.20;;;;;;;-4.45;49.40;100843.63;1741631;81;20149;-65
2022/03/13 02:54:22;;;;;;;34.23;18.70;;;;;;;-4.51;49.32;100836.27;1742580;81;22179;-65
2022/03/13 02:56:49;;;;;;;34.60;21.73;;;;;;;-4.53;49.40;100848.50;1750145;81;20930;-65
2022/03/13 02:59:16;;;;;;;;;;;;;;;-4.55;49.48;100837.38;1754135;81;20882;-65
2022/03/13 03:01:42;;;;;;;36.23;19.85;;;;;;;-4.59;49.66;100840.67;1740576;82;20087;-65
2022/03/13 03:04:10;;;;;;;42.95;20.43;;;;;;;-4.63;49.63;100840.09;1737951;81;21518;-65
2022/03/13 03:06:40;;;;;;;41.53;21.85;;;;;;;-4.72;49.68;100840.25;1738164;81;24925;-65
2022/03/13 03:09:07;;;;;;;41.73;21.25;;;;;;;-4.77;49.79;100836.69;1736562;81;20976;-65
2022/03/13 03:11:34;;;;;;;39.45;21.80;;;;;;;-4.80;49.93;100836.59;1737589;80;20929;-65
2022/03/13 03:14:04;;;;;;;39.35;19.20;;;;;;;-4.81;49.98;100845.06;1738397;81;28932;-65
2022/03/13 03:16:31;;;;;;;29.02;17.40;;;;;;;-4.78;50.00;100845.16;1740835;81;21442;-65
2022/03/13 03:18:58;;;;;;;38.83;21.82;;;;;;;-4.77;49.95;100835.41;1743163;81;21077;-65
2022/03/13 03:21:25;;;;;;;35.20;18.73;;;;;;;-4.72;49.98;100840.67;1733615;80;20934;-65
2022/03/13 03:23:51;;;;;;;33.30;17.17;;;;;;;-4.68;49.94;100841.20;1742394;81;21484;-65
2022/03/13 03:26:18;;;;;;;36.35;19.73;;;;;;;-4.63;50.08;100842.64;1751613;81;21017;-65
2022/03/13 03:28:46;;;;;;;26.57;16.30;;;;;;;-4.63;50.15;100841.38;1744993;81;21020;-65
2022/03/13 03:31:13;;;;;;;36.63;20.17;;;;;;;-4.66;50.17;100841.27;1748292;81;21079;-64
2022/03/13 03:33:39;;;;;;;38.47;19.57;;;;;;;-4.68;50.18;100837.80;1751065;81;20993;-65
2022/03/13 03:36:06;;;;;;;36.23;17.07;;;;;;;-4.70;50.26;100844.52;1746941;81;20874;-65
2022/03/13 03:38:33;;;;;;;33.63;18.07;;;;;;;-4.73;50.30;100853.83;1715068;82;21382;-65
2022/03/13 03:40:59;;;;;;;35.37;19.50;;;;;;;-4.77;50.32;100850.70;1748571;80;20941;-65
2022/03/13 03:43:26;;;;;;;39.50;20.77;;;;;;;-4.77;50.37;100848.15;1743203;81;21090;-65
2022/03/13 03:45:55;;;;;;;34.20;20.27;;;;;;;-4.79;50.45;100851.08;1718898;82;20967;-65
2022/03/13 03:48:22;;;;;;;33.92;19.50;;;;;;;-4.79;50.52;100842.16;1713257;82;20930;-65
2022/03/13 03:50:48;;;;;;;40.30;20.60;;;;;;;-4.79;50.67;100847.26;1710020;82;20953;-65
2022/03/13 03:53:15;;;;;;;39.13;19.70;;;;;;;-4.80;50.84;100841.69;1746655;81;20855;-64
2022/03/13 03:55:41;;;;;;;35.65;19.23;;;;;;;-4.86;50.94;100846.58;1724448;81;21020;-65
2022/03/13 03:58:08;;;;;;;37.63;19.93;;;;;;;-4.91;51.04;100855.75;1751292;81;20942;-65
2022/03/13 04:00:35;;;;;;;37.20;21.42;;;;;;;-4.92;51.13;100847.66;1712775;82;21143;-65
2022/03/13 04:03:02;;;;;;;39.58;20.00;;;;;;;-4.94;51.07;100844.19;1719856;83;21490;-65
2022/03/13 04:05:28;;;;;;;42.50;20.77;;;;;;;-4.94;51.16;100848.01;1745738;81;20908;-64
2022/03/13 04:07:55;;;;;;;39.37;20.80;;;;;;;-4.93;51.21;100843.77;1754056;81;21046;-65
2022/03/13 04:10:22;;;;;;;36.20;18.27;;;;;;;-4.95;51.22;100846.29;1755437;81;20867;-65
2022/03/13 04:12:48;;;;;;;40.37;20.40;;;;;;;-4.99;51.21;100849.53;1754135;81;21140;-64
2022/03/13 04:15:15;;;;;;;41.97;20.50;;;;;;;-5.03;51.22;100851.53;1715665;82;20969;-65
2022/03/13 04:17:42;;;;;;;37.80;18.87;;;;;;;-5.06;51.28;100851.43;1710988;82;20904;-65
2022/03/13 04:20:10;;;;;;;36.13;18.42;;;;;;;-5.07;51.35;100858.59;1741844;81;21010;-65
2022/03/13 04:22:36;;;;;;;28.80;14.60;;;;;;;-5.08;51.34;100851.77;1751173;81;20937;-65
2022/03/13 04:25:04;;;;;;;26.75;14.80;;;;;;;-5.08;51.46;100860.28;1754222;81;21416;-64
2022/03/13 04:27:31;;;;;;;;;;;;;;;-5.08;51.40;100859.41;1719281;82;20991;-65
2022/03/13 04:29:58;;;;;;;;;;;;;;;-5.06;51.59;100867.98;1747625;81;20171;-64
2022/03/13 04:32:24;;;;;;;25.82;14.00;;;;;;;-5.05;51.70;100864.61;1743126;81;20978;-64
2022/03/13 04:34:51;;;;;;;28.90;16.43;;;;;;;-5.08;51.68;100859.00;1716216;82;20947;-63
2022/03/13 04:37:19;;;;;;;33.30;18.67;;;;;;;-5.11;51.77;100860.59;1714508;82;21374;-64
2022/03/13 04:39:47;;;;;;;34.83;16.95;;;;;;;-5.15;51.83;100857.46;1736634;80;28044;-65
2022/03/13 04:42:13;;;;;;;27.60;16.02;;;;;;;-5.19;51.88;100857.36;1710126;82;21067;-65
2022/03/13 04:44:40;;;;;;;28.25;14.68;;;;;;;-5.23;51.95;100860.63;1714023;82;21039;-65
2022/03/13 04:47:07;;;;;;;27.90;14.83;;;;;;;-5.27;51.90;100856.22;1750714;81;21920;-65
2022/03/13 04:49:33;;;;;;;28.00;15.70;;;;;;;-5.28;51.99;100857.05;1752211;80;20915;-65
2022/03/13 04:52:00;;;;;;;24.80;13.47;;;;;;;-5.30;52.10;100851.02;1750925;81;20953;-65
2022/03/13 04:54:27;;;;;;;24.63;14.55;;;;;;;-5.33;52.15;100856.02;1751736;81;21480;-64
2022/03/13 04:56:54;;;;;;;30.50;15.15;;;;;;;-5.32;52.35;100856.88;1748248;81;21160;-65
2022/03/13 04:59:20;;;;;;;26.12;14.43;;;;;;;-5.32;52.28;100847.97;1747113;81;20985;-64
2022/03/13 05:01:47;;;;;;;28.15;17.25;;;;;;;-5.32;52.40;100857.77;1741271;81;20997;-65
2022/03/13 05:04:14;;;;;;;29.75;18.30;;;;;;;-5.35;52.41;100860.17;1749507;81;20945;-65
2022/03/13 05:06:43;;;;;;;36.98;20.52;;;;;;;-5.37;52.48;100868.19;1748620;81;20974;-65
2022/03/13 05:09:09;;;;;;;37.10;20.52;;;;;;;-5.35;52.53;100870.36;1749746;81;21008;-65
2022/03/13 05:11:36;;;;;;;46.13;26.02;;;;;;;-5.32;52.57;100875.59;1749080;81;20965;-64
2022/03/13 05:14:02;;;;;;;48.47;28.77;;;;;;;-5.31;52.57;100874.77;1746904;81;21461;-65
2022/03/13 05:16:29;;;;;;;55.40;29.82;;;;;;;-5.31;52.62;100870.95;1742203;81;21471;-65
2022/03/13 05:18:55;;;;;;;45.70;26.90;;;;;;;-5.30;52.68;100873.94;1737577;81;20954;-66
2022/03/13 05:21:22;;;;;;;59.77;33.45;;;;;;;-5.27;52.78;100879.14;1748159;81;21360;-64
2022/03/13 05:23:48;;;;;;;41.90;27.67;;;;;;;-5.05;52.95;100877.34;1749011;81;21472;-64
2022/03/13 05:26:15;;;;;;;50.17;25.13;;;;;;;-4.61;53.10;100876.70;1747432;81;21452;-65
2022/03/13 05:28:42;;;;;;;37.33;24.13;;;;;;;-4.00;53.09;100881.17;1748988;81;21547;-65
2022/03/13 05:31:09;;;;;;;43.95;23.15;;;;;;;-3.38;53.03;100878.29;1748888;81;21144;-65
2022/03/13 05:33:36;;;;;;;42.90;23.20;;;;;;;-2.74;52.87;100873.16;1745443;81;22070;-65
2022/03/13 05:36:03;;;;;;;44.00;22.75;;;;;;;-2.05;52.92;100876.91;1748924;81;20929;-65
2022/03/13 05:38:30;;;;;;;38.55;22.13;;;;;;;-1.30;52.65;100871.22;1744960;81;20957;-65
2022/03/13 05:40:56;;;;;;;35.10;21.02;;;;;;;-0.56;52.60;100864.83;1746274;81;21487;-65
2022/03/13 05:43:23;;;;;;;38.50;21.68;;;;;;;0.12;52.51;100865.02;1749225;81;20989;-66
2022/03/13 05:45:50;;;;;;;47.05;22.40;;;;;;;0.71;52.17;100865.31;1748369;81;21081;-65
2022/03/13 05:48:18;;;;;;;41.85;23.47;;;;;;;1.66;52.02;100857.18;1749435;80;21571;-66
2022/03/13 05:50:46;;;;;;;45.38;22.20;;;;;;;1.66;52.02;100857.18;1717404;82;21480;-66
2022/03/13 05:53:13;;;;;;;32.25;20.52;;;;;;;2.24;52.05;100863.09;1711751;82;20896;-65
2022/03/13 05:55:39;;;;;;;39.03;21.48;;;;;;;2.73;51.88;100859.44;1712131;82;20959;-65
2022/03/13 05:58:06;;;;;;;39.80;24.30;;;;;;;3.17;51.71;100848.35;1740111;81;21028;-65
2022/03/13 06:00:33;;;;;;;43.08;25.90;;;;;;;3.61;51.67;100844.89;1718721;82;20952;-65
2022/03/13 06:03:01;;;;;;;44.55;28.02;;;;;;;4.18;51.70;100856.00;1748705;81;21571;-65
2022/03/13 06:05:31;;;;;;;35.08;23.57;;;;;;;4.56;51.40;100856.71;1710480;81;21535;-65
2022/03/13 06:07:57;;;;;;;33.20;21.77;;;;;;;4.78;51.26;100858.33;1751956;81;20973;-66
2022/03/13 06:10:27;;;;;;;32.90;23.38;;;;;;;5.01;51.12;100858.19;1751728;81;21046;-65
2022/03/13 06:12:54;;;;;;;32.65;20.57;;;;;;;5.11;51.00;100863.73;1745903;81;21532;-65
2022/03/13 06:15:23;;;;;;;26.77;18.95;;;;;;;5.11;50.80;100866.77;1717668;82;21164;-65
2022/03/13 06:17:51;;;;;;;31.57;17.98;;;;;;;5.05;50.75;100866.38;1746700;80;22184;-66
2022/03/13 06:20:19;;;;;;;27.15;18.62;;;;;;;5.05;50.87;100875.44;1745074;81;20969;-66
2022/03/13 06:22:48;;;;;;;28.12;18.35;;;;;;;5.26;50.88;100882.19;1745734;80;21128;-67
2022/03/13 06:25:17;;;;;;;29.65;18.67;;;;;;;5.26;50.88;100882.19;1718485;82;20908;-65
2022/03/13 06:27:44;;;;;;;28.35;18.60;;;;;;;5.35;50.63;100877.41;1743073;81;20998;-64
2022/03/13 06:30:23;;;;;;;23.80;18.07;;;;;;;5.45;50.64;100884.21;1750080;80;20965;-63
2022/03/13 06:32:48;;;;;;;22.95;15.48;;;;;;;5.59;50.63;100881.07;1716207;82;20939;-68
2022/03/13 06:35:18;;;;;;;27.45;16.00;;;;;;;5.72;50.55;100875.80;1744235;80;21125;-65
2022/03/13 06:37:48;;;;;;;24.20;16.25;;;;;;;5.78;50.47;100875.74;1720649;82;20936;-66
2022/03/13 06:40:19;;;;;;;43.78;27.13;;;;;;;5.88;50.43;100874.80;1743118;81;20914;-66
2022/03/13 06:42:54;;;;;;;33.85;22.65;;;;;;;5.91;50.30;100874.77;1738869;81;47414;-66
2022/03/13 06:45:22;;;;;;;40.45;23.73;;;;;;;5.86;50.31;100870.05;1750309;80;21415;-66
2022/03/13 06:47:50;;;;;;;28.42;21.27;;;;;;;5.93;50.37;100873.02;1716765;82;21345;-66
2022/03/13 06:50:22;;;;;;;26.50;20.43;;;;;;;6.20;50.24;100873.63;1717686;82;20981;-65
2022/03/13 06:52:52;;;;;;;30.57;21.50;;;;;;;6.20;50.07;100871.89;1686551;81;21458;-65
2022/03/13 06:55:21;;;;;;;40.00;27.00;;;;;;;6.23;50.06;100868.41;1709500;82;21511;-66
2022/03/13 06:57:50;;;;;;;38.00;25.55;;;;;;;6.21;49.96;100868.41;1747580;80;21499;-65
2022/03/13 07:00:17;;;;;;;57.60;31.75;;;;;;;6.19;50.06;100864.11;1681822;84;21976;-65
2022/03/13 07:02:44;;;;;;;;;;;;;;;6.27;50.08;100867.48;1703946;82;21011;-66
2022/03/13 07:05:10;;;;;;;48.03;28.63;;;;;;;6.33;50.08;100865.25;1732371;81;20584;-65
2022/03/13 07:07:37;;;;;;;33.30;20.92;;;;;;;6.34;50.08;100873.48;1745417;81;20865;-65
2022/03/13 07:10:10;;;;;;;32.85;21.55;;;;;;;6.42;50.09;100880.29;1716662;82;20958;-65
2022/03/13 07:12:34;;;;;;;31.40;16.50;;;;;;;6.48;49.87;100874.17;1759015;80;21030;-67
2022/03/13 07:15:01;;;;;;;21.62;14.18;;;;;;;6.28;49.88;100877.00;1754886;80;20975;-67
2022/03/13 07:17:28;;;;;;;20.50;14.13;;;;;;;6.14;49.88;100878.89;1755738;80;21486;-66
2022/03/13 07:19:56;;;;;;;22.00;13.35;;;;;;;6.16;49.72;100879.30;1765010;80;21593;-66
2022/03/13 07:22:25;;;;;;;16.82;11.53;;;;;;;6.28;49.57;100878.30;1751688;81;21500;-66
2022/03/13 07:24:52;;;;;;;16.75;11.93;;;;;;;6.41;49.29;100875.99;1748610;80;21433;-68
2022/03/13 07:27:18;;;;;;;23.30;11.00;;;;;;;6.48;49.18;100880.22;1746157;80;21447;-66
2022/03/13 07:29:45;;;;;;;28.13;15.00;;;;;;;6.54;49.08;100883.62;1762890;80;20941;-65
2022/03/13 07:32:12;;;;;;;24.50;13.03;;;;;;;6.59;49.06;100880.53;1691713;82;20915;-65
2022/03/13 07:34:39;;;;;;;18.92;11.85;;;;;;;6.70;48.94;100889.05;1708157;81;21428;-66
2022/03/13 07:37:06;;;;;;;24.47;13.45;;;;;;;6.74;48.64;100889.41;1715320;81;21961;-65
2022/03/13 07:39:32;;;;;;;18.73;11.12;;;;;;;6.63;48.60;100892.58;1749195;80;21447;-65
2022/03/13 07:41:59;;;;;;;16.90;11.30;;;;;;;6.49;48.20;100889.70;1747832;81;20894;-65
2022/03/13 07:44:28;;;;;;;14.10;8.98;;;;;;;6.35;48.07;100893.34;1744336;81;20946;-65
2022/03/13 07:46:55;;;;;;;10.60;7.17;;;;;;;6.23;48.00;100891.75;1726334;82;21043;-65
2022/03/13 07:49:22;;;;;;;11.25;8.00;;;;;;;6.02;46.84;100887.22;1706494;82;21028;-65
2022/03/13 07:51:48;;;;;;;8.97;6.37;;;;;;;5.78;45.49;100888.70;1721812;82;20957;-65
2022/03/13 07:54:19;;;;;;;11.90;7.83;;;;;;;5.58;45.98;100889.73;1725276;81;20935;-65
2022/03/13 07:56:44;;;;;;;13.70;7.37;;;;;;;5.49;45.75;100888.92;1720745;82;20946;-64
2022/03/13 07:59:10;;;;;;;19.25;9.83;;;;;;;5.46;45.05;100887.25;1697956;83;20960;-65
2022/03/13 08:01:37;;;;;;;13.90;8.40;;;;;;;5.43;44.92;100883.36;1724737;82;22058;-65
2022/03/13 08:04:05;;;;;;;18.52;10.30;;;;;;;5.45;44.25;100889.39;1723244;82;20937;-65
2022/03/13 08:06:35;;;;;;;15.08;9.05;;;;;;;5.49;44.62;100889.81;1724883;81;20914;-64
2022/03/13 08:09:04;;;;;;;24.27;14.03;;;;;;;5.54;44.40;100893.20;1716692;82;20886;-63
2022/03/13 08:11:34;;;;;;;45.58;24.95;;;;;;;5.61;44.04;100885.81;1717376;82;21043;-66
2022/03/13 08:13:59;;;;;;;22.00;12.65;;;;;;;5.69;44.06;100883.61;1713837;82;21114;-64
2022/03/13 08:16:27;;;;;;;60.63;34.63;;;;;;;5.80;43.83;100889.55;1716223;82;20980;-65
2022/03/13 08:18:54;;;;;;;64.27;37.78;;;;;;;5.84;43.78;100883.45;1713683;82;21010;-64
2022/03/13 08:21:21;;;;;;;28.65;16.60;;;;;;;5.91;42.69;100876.05;1718865;82;20950;-67
2022/03/13 08:23:48;;;;;;;12.73;8.68;;;;;;;5.94;43.16;100877.36;1718245;82;21870;-66
2022/03/13 08:26:16;;;;;;;12.98;8.03;;;;;;;5.95;42.60;100873.88;1720345;82;21057;-63
2022/03/13 08:28:44;;;;;;;16.67;9.95;;;;;;;5.89;42.38;100884.28;1721296;82;20969;-65
2022/03/13 08:31:13;;;;;;;22.47;11.57;;;;;;;5.87;42.36;100878.23;1719929;82;20992;-64
2022/03/13 08:33:45;;;;;;;29.25;19.37;;;;;;;5.93;42.02;100873.02;1687729;82;20941;-65
2022/03/13 08:36:13;;;;;;;63.50;39.25;;;;;;;6.02;42.09;100883.73;1716735;82;20976;-64
2022/03/13 08:38:42;;;;;;;61.15;35.83;;;;;;;6.08;42.08;100877.63;1715427;82;21065;-64
2022/03/13 08:41:11;;;;;;;68.22;42.15;;;;;;;6.13;42.27;100879.30;1716474;82;21932;-64
2022/03/13 08:43:40;;;;;;;83.40;49.48;;;;;;;6.22;42.01;100875.33;1719152;82;20953;-64
2022/03/13 08:46:12;;;;;;;70.47;45.43;;;;;;;6.26;42.08;100876.15;1724088;82;20956;-64
2022/03/13 08:48:39;;;;;;;42.27;27.27;;;;;;;6.32;41.98;100873.48;1718667;82;20918;-65
2022/03/13 08:51:08;;;;;;;27.73;20.92;;;;;;;6.42;42.15;100877.70;1741911;80;21263;-64
2022/03/13 08:53:34;;;;;;;15.58;9.05;;;;;;;6.54;41.01;100875.83;1748349;80;20958;-64
2022/03/13 08:56:02;;;;;;;22.10;12.80;;;;;;;6.54;41.40;100878.42;1745362;80;20907;-64
2022/03/13 08:58:29;;;;;;;17.52;7.87;;;;;;;6.61;41.64;100874.86;1745881;80;21558;-63
2022/03/13 09:00:57;;;;;;;12.37;7.85;;;;;;;6.62;40.16;100876.59;1749198;80;20900;-65
2022/03/13 09:03:26;;;;;;;14.05;7.97;;;;;;;6.60;40.19;100875.75;1756159;80;21031;-64
2022/03/13 09:05:55;;;;;;;12.35;7.92;;;;;;;6.52;38.84;100882.77;1754387;80;20931;-64
2022/03/13 09:08:23;;;;;;;16.10;9.28;;;;;;;6.49;39.12;100881.92;1751424;80;21475;-64
2022/03/13 09:10:52;;;;;;;13.98;8.45;;;;;;;6.56;39.46;100892.25;1755208;80;21463;-64
2022/03/13 09:13:21;;;;;;;16.82;8.60;;;;;;;6.63;38.41;100885.64;1721809;81;21040;-64
2022/03/13 09:15:49;;;;;;;15.23;9.00;;;;;;;6.68;39.33;100892.09;1756865;80;21896;-64
2022/03/13 09:18:16;;;;;;;13.93;9.08;;;;;;;6.73;38.18;100885.11;1752876;80;20894;-64
2022/03/13 09:20:43;;;;;;;17.95;9.90;;;;;;;6.77;38.76;100884.17;1759373;80;21519;-64
2022/03/13 09:23:11;;;;;;;13.08;8.53;;;;;;;6.88;38.90;100895.27;1749844;80;21535;-64
2022/03/13 09:25:38;;;;;;;17.92;9.43;;;;;;;7.00;38.36;100888.20;1747708;80;21441;-63
2022/03/13 09:28:07;;;;;;;14.93;8.38;;;;;;;7.01;37.85;100876.95;1747294;81;21035;-64
2022/03/13 09:30:34;;;;;;;13.68;8.80;;;;;;;7.12;38.18;100881.55;1747599;81;20938;-64
2022/03/13 09:33:01;;;;;;;16.05;8.40;;;;;;;7.19;37.53;100883.16;1711527;82;21445;-64
2022/03/13 09:35:27;;;;;;;14.73;8.95;;;;;;;7.21;37.54;100876.21;1748984;81;21523;-64
2022/03/13 09:37:54;;;;;;;16.87;10.00;;;;;;;7.19;37.44;100877.97;1740388;80;20906;-64
2022/03/13 09:40:21;;;;;;;15.95;8.60;;;;;;;7.15;37.06;100878.46;1744030;80;20985;-64
2022/03/13 09:42:48;;;;;;;10.30;7.75;;;;;;;7.20;36.99;100877.52;1751026;80;21522;-64
2022/03/13 09:45:19;;;;;;;15.50;7.85;;;;;;;7.16;36.09;100878.02;1744226;81;20929;-64
2022/03/13 09:47:52;;;;;;;14.20;8.95;;;;;;;7.13;35.98;100884.55;1757448;81;21494;-64
2022/03/13 09:50:22;;;;;;;13.72;8.58;;;;;;;7.16;36.01;100881.91;1750281;81;20946;-64
2022/03/13 09:52:49;;;;;;;10.60;7.92;;;;;;;7.21;36.20;100884.00;1726086;81;21291;-64
2022/03/13 09:55:17;;;;;;;13.98;7.58;;;;;;;7.30;35.97;100885.16;1732039;81;20920;-64
2022/03/13 09:57:48;;;;;;;13.72;8.88;;;;;;;7.34;35.78;100880.34;1671618;83;20876;-64
2022/03/13 10:00:17;;;;;;;15.05;8.93;;;;;;;7.39;35.58;100883.73;1720890;81;20914;-64
2022/03/13 10:02:49;;;;;;;16.48;9.40;;;;;;;7.45;36.08;100881.90;1724844;81;20953;-64
2022/03/13 10:05:20;;;;;;;11.80;9.40;;;;;;;7.56;35.80;100875.67;1702431;83;21235;-64
2022/03/13 10:08:03;;;;;;;11.40;8.33;;;;;;;7.67;35.84;100881.96;1730292;82;20922;-64
2022/03/13 10:10:49;;;;;;;14.73;8.20;;;;;;;7.61;35.44;100879.47;1731902;82;20958;-64
2022/03/13 10:13:35;;;;;;;11.25;7.58;;;;;;;7.65;34.93;100881.16;1727413;81;20886;-64
2022/03/13 10:16:04;;;;;;;15.73;8.70;;;;;;;7.71;35.19;100886.25;1727367;81;20996;-64
2022/03/13 10:18:33;;;;;;;14.50;9.03;;;;;;;7.70;34.96;100877.16;1733386;82;21622;-64
2022/03/13 10:21:13;;;;;;;16.40;9.08;;;;;;;7.74;34.79;100880.98;1699355;82;20882;-65
2022/03/13 10:23:49;;;;;;;15.72;8.63;;;;;;;7.83;35.30;100884.72;1728444;81;20871;-62
2022/03/13 10:26:17;;;;;;;12.78;7.12;;;;;;;7.92;34.99;100886.75;1727788;81;20910;-65
2022/03/13 10:28:45;;;;;;;11.63;7.00;;;;;;;7.94;34.18;100884.98;1726273;82;20972;-64
2022/03/13 10:31:16;;;;;;;7.87;5.97;;;;;;;7.95;33.94;100881.48;1728842;81;21109;-62
2022/03/13 10:33:52;;;;;;;9.43;6.42;;;;;;;7.98;33.76;100884.03;1729331;81;20902;-64
2022/03/13 10:36:25;;;;;;;9.95;6.35;;;;;;;7.93;33.67;100883.28;1727069;83;20921;-64
2022/03/13 10:38:52;;;;;;;9.15;6.03;;;;;;;7.95;33.61;100873.69;1725985;81;21479;-65
2022/03/13 10:41:20;;;;;;;10.40;6.08;;;;;;;8.04;33.67;100874.84;1726126;82;20941;-65
2022/03/13 10:43:58;;;;;;;9.05;6.05;;;;;;;8.11;33.38;100867.32;1726768;81;21005;-65
2022/03/13 10:46:31;;;;;;;11.22;6.70;;;;;;;8.13;33.50;100865.56;1727433;83;21500;-64
2022/03/13 10:49:00;;;;;;;10.55;6.15;;;;;;;8.11;33.12;100864.72;1700748;83;21523;-64
2022/03/13 10:51:46;;;;;;;12.63;6.45;;;;;;;8.05;33.05;100857.03;1708566;81;21484;-65
2022/03/13 10:54:39;;;;;;;9.63;6.37;;;;;;;8.06;32.89;100853.53;1701312;83;21445;-65
2022/03/13 10:57:09;;;;;;;11.08;6.17;;;;;;;8.11;32.94;100864.72;1697631;83;22029;-65
2022/03/13 10:59:39;;;;;;;9.53;5.97;;;;;;;8.05;32.95;100864.84;1694735;83;20924;-64
2022/03/13 11:02:19;;;;;;;9.08;6.25;;;;;;;8.12;32.62;100861.22;1698529;83;20962;-65
2022/03/13 11:04:58;;;;;;;13.03;6.50;;;;;;;8.21;32.53;100861.06;1696726;83;20962;-64
2022/03/13 11:07:28;;;;;;;5.87;4.72;;;;;;;8.23;32.63;100859.72;1676403;83;21013;-64
2022/03/13 11:09:55;;;;;;;11.25;6.83;;;;;;;8.39;32.84;100857.27;1705532;83;21027;-64
2022/03/13 11:12:23;;;;;;;12.18;6.60;;;;;;;8.53;32.59;100854.38;1700009;83;20928;-66
2022/03/13 11:14:55;;;;;;;8.13;5.55;;;;;;;8.58;32.02;100855.15;1696852;83;20906;-64
2022/03/13 11:17:32;;;;;;;8.30;5.55;;;;;;;8.53;32.28;100867.40;1698694;82;20889;-67
2022/03/13 11:20:01;;;;;;;7.85;5.15;;;;;;;8.49;31.56;100860.55;1698605;83;21466;-68
2022/03/13 11:22:29;;;;;;;11.73;7.20;;;;;;;8.50;32.12;100857.05;1699802;83;21873;-65